createdAt,value
2023-02-27T00:01:23.522Z,2.53
2023-02-27T00:03:51.906Z,4.57
2023-02-27T00:06:20.135Z,4.50
2023-02-27T00:08:48.407Z,5.53
2023-02-27T00:11:16.634Z,5.20
2023-02-27T00:13:44.859Z,5.63
2023-02-27T00:16:13.215Z,4.37
2023-02-27T00:18:42.886Z,5.77
2023-02-27T00:21:11.191Z,5.33
2023-02-27T00:23:39.561Z,5.30
2023-02-27T00:26:07.871Z,7.23
2023-02-27T00:28:36.109Z,4.83
2023-02-27T00:31:04.735Z,4.53
2023-02-27T00:33:33.039Z,7.03
2023-02-27T00:36:03.659Z,3.67
2023-02-27T00:38:32.109Z,2.37
2023-02-27T00:41:00.710Z,4.37
2023-02-27T00:43:29.071Z,2.50
2023-02-27T00:45:57.343Z,3.50
2023-02-27T00:48:25.558Z,2.67
2023-02-27T00:50:53.753Z,3.83
2023-02-27T00:53:23.416Z,3.73
2023-02-27T00:55:51.888Z,3.53
2023-02-27T00:58:20.086Z,7.97
2023-02-27T01:00:48.375Z,3.33
2023-02-27T01:03:16.710Z,6.47
2023-02-27T01:05:44.965Z,7.13
2023-02-27T01:08:13.243Z,4.50
2023-02-27T01:10:42.852Z,3.67
2023-02-27T01:13:11.400Z,5.23
2023-02-27T01:15:39.706Z,2.90
2023-02-27T01:18:07.991Z,3.40
2023-02-27T01:20:36.187Z,5.90
2023-02-27T01:23:04.446Z,4.47
2023-02-27T01:25:32.645Z,3.67
2023-02-27T01:28:02.242Z,6.63
2023-02-27T01:30:30.565Z,5.50
2023-02-27T01:32:58.823Z,4.07
2023-02-27T01:35:27.035Z,5.27
2023-02-27T01:37:55.267Z,4.30
2023-02-27T01:40:23.602Z,7.10
2023-02-27T01:42:51.799Z,3.63
2023-02-27T01:45:32.069Z,5.97
2023-02-27T01:48:13.511Z,7.37
2023-02-27T01:50:45.154Z,4.47
2023-02-27T01:53:13.416Z,8.00
2023-02-27T01:55:41.988Z,6.50
2023-02-27T01:58:11.686Z,3.53
2023-02-27T02:00:41.540Z,4.63
2023-02-27T02:03:14.819Z,4.13
2023-02-27T02:05:43.952Z,7.20
2023-02-27T02:08:12.558Z,4.90
2023-02-27T02:10:41.376Z,3.83
2023-02-27T02:13:09.598Z,5.23
2023-02-27T02:15:41.071Z,5.53
2023-02-27T02:18:17.793Z,3.10
2023-02-27T02:20:54.887Z,5.43
2023-02-27T02:23:47.153Z,2.83
2023-02-27T02:26:48.682Z,4.47
2023-02-27T02:29:34.610Z,5.50
2023-02-27T02:32:16.741Z,5.67
2023-02-27T02:35:07.399Z,5.70
2023-02-27T02:37:56.372Z,5.40
2023-02-27T02:40:29.614Z,2.70
2023-02-27T02:43:03.137Z,3.97
2023-02-27T02:45:34.966Z,5.13
2023-02-27T02:48:05.927Z,4.50
2023-02-27T02:50:37.305Z,2.97
2023-02-27T02:53:08.106Z,5.33
2023-02-27T02:55:39.676Z,4.70
2023-02-27T02:58:12.053Z,3.00
2023-02-27T03:00:42.427Z,3.73
2023-02-27T03:03:14.435Z,5.10
2023-02-27T03:05:45.121Z,5.80
2023-02-27T03:08:15.561Z,3.80
2023-02-27T03:10:46.500Z,3.43
2023-02-27T03:13:17.973Z,4.67
2023-02-27T03:15:48.170Z,5.93
2023-02-27T03:18:20.451Z,5.23
2023-02-27T03:20:51.156Z,4.03
2023-02-27T03:23:22.565Z,6.70
2023-02-27T03:25:52.444Z,6.97
2023-02-27T03:28:23.639Z,3.20
2023-02-27T03:30:53.994Z,6.37
2023-02-27T03:33:24.889Z,4.33
2023-02-27T03:35:55.831Z,5.13
2023-02-27T03:38:27.796Z,5.00
2023-02-27T03:41:00.445Z,5.27
2023-02-27T03:43:32.591Z,4.97
2023-02-27T03:46:03.460Z,6.53
2023-02-27T03:48:32.088Z,5.23
2023-02-27T03:51:00.595Z,3.30
2023-02-27T03:53:31.784Z,4.00
2023-02-27T03:56:05.365Z,6.20
2023-02-27T03:58:33.735Z,4.47
2023-02-27T04:01:01.982Z,4.43
2023-02-27T04:03:30.427Z,3.50
2023-02-27T04:06:19.421Z,3.70
2023-02-27T04:08:51.231Z,7.50
2023-02-27T04:11:34.368Z,4.67
2023-02-27T04:14:12.383Z,3.37
2023-02-27T04:16:54.307Z,5.57
2023-02-27T04:19:31.357Z,5.00
2023-02-27T04:22:03.566Z,3.83
2023-02-27T04:24:37.180Z,6.33
2023-02-27T04:27:10.066Z,6.30
2023-02-27T04:29:43.081Z,7.33
2023-02-27T04:32:16.764Z,5.63
2023-02-27T04:34:45.641Z,4.80
2023-02-27T04:37:14.880Z,5.03
2023-02-27T04:39:45.848Z,4.30
2023-02-27T04:42:16.696Z,5.00
2023-02-27T04:44:46.682Z,4.20
2023-02-27T04:47:15.840Z,3.57
2023-02-27T04:49:46.157Z,8.37
2023-02-27T04:52:15.741Z,6.90
2023-02-27T04:54:48.220Z,4.70
2023-02-27T04:57:18.740Z,4.70
2023-02-27T04:59:50.607Z,4.67
2023-02-27T05:02:24.940Z,10.57
2023-02-27T05:04:55.042Z,6.47
2023-02-27T05:07:26.003Z,6.17
2023-02-27T05:09:56.682Z,7.10
2023-02-27T05:12:26.379Z,6.60
2023-02-27T05:14:58.209Z,5.20
2023-02-27T05:17:30.704Z,6.17
2023-02-27T05:19:59.333Z,5.47
2023-02-27T05:22:32.258Z,4.03
2023-02-27T05:25:03.983Z,5.80
2023-02-27T05:27:35.541Z,6.77
2023-02-27T05:30:06.737Z,7.53
2023-02-27T05:32:39.523Z,5.83
2023-02-27T05:35:15.216Z,5.57
2023-02-27T05:37:45.570Z,7.70
2023-02-27T05:40:15.955Z,8.00
2023-02-27T05:42:47.038Z,8.07
2023-02-27T05:45:19.399Z,7.97
2023-02-27T05:47:50.579Z,5.03
2023-02-27T05:50:20.292Z,5.43
2023-02-27T05:52:50.109Z,6.83
2023-02-27T05:55:20.499Z,13.97
2023-02-27T05:57:51.465Z,5.27
2023-02-27T06:00:23.194Z,6.60
2023-02-27T06:02:51.628Z,4.70
2023-02-27T06:05:23.717Z,4.20
2023-02-27T06:07:51.997Z,5.60
2023-02-27T06:10:21.425Z,5.03
2023-02-27T06:12:49.855Z,11.90
2023-02-27T06:15:19.687Z,10.37
2023-02-27T06:17:49.449Z,15.93
2023-02-27T06:20:17.918Z,8.77
2023-02-27T06:22:46.363Z,8.87
2023-02-27T06:25:14.714Z,6.00
2023-02-27T06:27:42.963Z,5.77
2023-02-27T06:30:11.818Z,7.73
2023-02-27T06:32:40.157Z,6.03
2023-02-27T06:35:10.472Z,11.83
2023-02-27T06:37:38.797Z,5.67
2023-02-27T06:40:11.544Z,6.77
2023-02-27T06:42:39.925Z,10.40
2023-02-27T06:45:08.932Z,5.33
2023-02-27T06:47:37.275Z,8.87
2023-02-27T06:50:06.595Z,10.00
2023-02-27T06:52:36.259Z,5.27
2023-02-27T06:55:04.764Z,6.07
2023-02-27T06:57:33.196Z,6.77
2023-02-27T07:00:01.535Z,7.17
2023-02-27T07:02:29.872Z,9.13
2023-02-27T07:04:58.274Z,12.00
2023-02-27T07:07:36.325Z,7.90
2023-02-27T07:10:12.216Z,8.73
2023-02-27T07:12:40.609Z,8.13
2023-02-27T07:15:09.485Z,7.07
2023-02-27T07:17:38.092Z,6.77
2023-02-27T07:20:07.193Z,9.23
2023-02-27T07:22:35.792Z,8.03
2023-02-27T07:25:04.291Z,6.83
2023-02-27T07:27:34.213Z,9.53
2023-02-27T07:30:02.633Z,10.33
2023-02-27T07:32:30.932Z,7.57
2023-02-27T07:34:59.244Z,8.53
2023-02-27T07:37:28.228Z,6.67
2023-02-27T07:39:56.609Z,8.23
2023-02-27T07:42:25.116Z,7.77
2023-02-27T07:44:54.973Z,6.13
2023-02-27T07:47:23.476Z,5.23
2023-02-27T07:49:51.720Z,8.87
2023-02-27T07:52:20.043Z,8.00
2023-02-27T07:54:48.372Z,4.37
2023-02-27T07:57:16.615Z,4.87
2023-02-27T07:59:44.969Z,8.53
2023-02-27T08:02:14.993Z,6.93
2023-02-27T08:04:43.381Z,8.97
2023-02-27T08:07:12.266Z,6.07
2023-02-27T08:09:40.688Z,12.17
2023-02-27T08:12:08.964Z,10.73
2023-02-27T08:14:37.295Z,8.73
2023-02-27T08:17:05.588Z,15.83
2023-02-27T08:19:35.326Z,11.83
2023-02-27T08:22:03.635Z,11.17
2023-02-27T08:24:31.927Z,6.93
2023-02-27T08:27:00.536Z,6.87
2023-02-27T08:29:30.875Z,7.43
2023-02-27T08:31:59.217Z,6.10
2023-02-27T08:34:27.523Z,4.60
2023-02-27T08:36:57.398Z,7.17
2023-02-27T08:39:25.698Z,6.70
2023-02-27T08:41:54.516Z,6.77
2023-02-27T08:44:22.994Z,5.47
2023-02-27T08:46:51.248Z,8.07
2023-02-27T08:49:21.643Z,4.43
2023-02-27T08:51:50.234Z,4.83
2023-02-27T08:54:20.819Z,6.57
2023-02-27T08:56:49.530Z,7.80
2023-02-27T08:59:18.106Z,5.60
2023-02-27T09:01:46.376Z,6.10
2023-02-27T09:04:14.941Z,6.97
2023-02-27T09:06:43.271Z,10.27
2023-02-27T09:09:11.865Z,9.17
2023-02-27T09:11:41.889Z,5.80
2023-02-27T09:14:10.562Z,6.63
2023-02-27T09:16:39.724Z,7.93
2023-02-27T09:19:08.497Z,8.60
2023-02-27T09:21:37.398Z,4.93
2023-02-27T09:24:18.778Z,5.37
2023-02-27T09:26:50.396Z,4.40
2023-02-27T09:29:18.980Z,5.43
2023-02-27T09:31:47.418Z,8.20
2023-02-27T09:34:15.777Z,6.27
2023-02-27T09:36:44.185Z,4.87
2023-02-27T09:39:12.699Z,5.23
2023-02-27T09:41:54.296Z,4.60
2023-02-27T09:44:46.248Z,5.73
2023-02-27T09:47:17.607Z,5.43
2023-02-27T09:49:51.519Z,7.17
2023-02-27T09:52:19.896Z,4.87
2023-02-27T09:54:48.157Z,7.37
2023-02-27T09:57:20.709Z,5.37
2023-02-27T09:59:51.948Z,4.40
2023-02-27T10:02:28.602Z,6.87
2023-02-27T10:05:01.370Z,5.70
2023-02-27T10:07:32.597Z,5.00
2023-02-27T10:10:08.132Z,4.53
2023-02-27T10:12:44.163Z,6.97
2023-02-27T10:15:16.945Z,6.63
2023-02-27T10:17:48.416Z,7.87
2023-02-27T10:20:21.915Z,7.37
2023-02-27T10:22:52.277Z,5.33
2023-02-27T10:25:31.310Z,4.67
2023-02-27T10:28:04.112Z,8.87
2023-02-27T10:30:34.988Z,5.40
2023-02-27T10:33:07.617Z,3.90
2023-02-27T10:35:37.431Z,7.97
2023-02-27T10:38:07.952Z,4.60
2023-02-27T10:40:38.055Z,5.47
2023-02-27T10:43:08.240Z,4.53
2023-02-27T10:45:38.783Z,5.73
2023-02-27T10:48:08.499Z,7.03
2023-02-27T10:50:38.673Z,5.60
2023-02-27T10:53:08.892Z,4.87
2023-02-27T10:55:39.104Z,3.80
2023-02-27T10:58:09.276Z,5.37
2023-02-27T11:00:42.972Z,5.50
2023-02-27T11:03:19.875Z,6.90
2023-02-27T11:05:54.164Z,4.07
2023-02-27T11:08:23.956Z,7.87
2023-02-27T11:10:56.865Z,4.67
2023-02-27T11:13:27.204Z,3.73
2023-02-27T11:16:03.463Z,12.40
2023-02-27T11:18:32.238Z,8.17
2023-02-27T11:21:20.019Z,6.93
2023-02-27T11:23:51.992Z,4.90
2023-02-27T11:26:22.375Z,3.40
2023-02-27T11:29:05.200Z,5.60
2023-02-27T11:31:33.726Z,5.00
2023-02-27T11:34:02.115Z,7.40
2023-02-27T11:36:40.675Z,3.50
2023-02-27T11:39:09.042Z,4.63
2023-02-27T11:41:37.820Z,4.27
2023-02-27T11:44:07.943Z,4.23
2023-02-27T11:46:46.502Z,5.37
2023-02-27T11:49:22.071Z,2.37
2023-02-27T11:51:56.175Z,8.53
2023-02-27T11:54:34.693Z,4.87
2023-02-27T11:57:04.663Z,6.17
2023-02-27T11:59:41.072Z,5.50
2023-02-27T12:02:15.084Z,3.20
2023-02-27T12:04:46.339Z,3.90
2023-02-27T12:07:18.403Z,5.73
2023-02-27T12:09:51.375Z,10.30
2023-02-27T12:12:22.204Z,4.40
2023-02-27T12:14:54.793Z,4.97
2023-02-27T12:17:24.714Z,4.53
2023-02-27T12:20:00.184Z,4.93
2023-02-27T12:22:29.610Z,4.57
2023-02-27T12:25:02.162Z,2.30
2023-02-27T12:27:35.598Z,5.17
2023-02-27T12:30:09.208Z,6.10
2023-02-27T12:32:40.795Z,8.37
2023-02-27T12:35:14.614Z,2.90
2023-02-27T12:37:42.923Z,4.40
2023-02-27T12:40:16.795Z,20.90
2023-02-27T12:43:00.830Z,7.30
2023-02-27T12:45:43.475Z,4.23
2023-02-27T12:48:18.108Z,2.93
2023-02-27T12:50:50.403Z,4.87
2023-02-27T12:53:42.471Z,2.90
2023-02-27T12:56:14.788Z,4.80
2023-02-27T12:58:49.511Z,5.10
2023-02-27T13:01:26.975Z,4.60
2023-02-27T13:03:58.241Z,10.53
2023-02-27T13:06:31.158Z,4.20
2023-02-27T13:09:08.567Z,2.37
2023-02-27T13:11:44.442Z,5.47
2023-02-27T13:14:18.626Z,1.87
2023-02-27T13:16:52.210Z,2.80
2023-02-27T13:19:25.447Z,5.07
2023-02-27T13:21:55.779Z,2.93
2023-02-27T13:24:26.583Z,2.50
2023-02-27T13:26:58.303Z,3.97
2023-02-27T13:29:28.294Z,2.97
2023-02-27T13:32:02.006Z,3.00
2023-02-27T13:34:35.141Z,5.27
2023-02-27T13:37:04.393Z,2.97
2023-02-27T13:39:39.772Z,4.00
2023-02-27T13:42:33.927Z,3.80
2023-02-27T13:45:03.150Z,1.83
2023-02-27T13:47:52.398Z,4.27
2023-02-27T13:50:39.415Z,14.43
2023-02-27T13:53:15.180Z,4.77
2023-02-27T13:55:43.446Z,2.77
2023-02-27T13:58:15.683Z,4.33
2023-02-27T14:00:43.976Z,3.10
2023-02-27T14:03:20.541Z,3.37
2023-02-27T14:05:49.578Z,2.63
2023-02-27T14:08:21.784Z,2.90
2023-02-27T14:10:55.360Z,4.40
2023-02-27T14:13:42.303Z,4.63
2023-02-27T14:16:11.455Z,3.50
2023-02-27T14:18:54.731Z,4.17
2023-02-27T14:21:41.749Z,2.63
2023-02-27T14:24:15.011Z,3.17
2023-02-27T14:26:46.346Z,3.77
2023-02-27T14:29:18.674Z,3.53
2023-02-27T14:31:47.015Z,3.20
2023-02-27T14:34:16.507Z,4.57
2023-02-27T14:36:46.400Z,4.23
2023-02-27T14:39:23.285Z,4.37
2023-02-27T14:41:57.888Z,2.70
2023-02-27T14:44:27.883Z,7.40
2023-02-27T14:46:56.794Z,2.77
2023-02-27T14:49:26.947Z,3.90
2023-02-27T14:51:55.218Z,4.63
2023-02-27T14:54:26.604Z,3.77
2023-02-27T14:56:55.445Z,4.37
2023-02-27T14:59:24.663Z,4.57
2023-02-27T15:01:53.448Z,2.67
2023-02-27T15:04:24.121Z,2.63
2023-02-27T15:06:53.030Z,2.30
2023-02-27T15:09:24.202Z,7.07
2023-02-27T15:12:03.655Z,4.37
2023-02-27T15:14:33.604Z,2.40
2023-02-27T15:17:01.861Z,3.37
2023-02-27T15:19:30.867Z,4.73
2023-02-27T15:21:59.784Z,3.40
2023-02-27T15:24:31.472Z,3.30
2023-02-27T15:27:05.579Z,3.00
2023-02-27T15:29:39.656Z,3.50
2023-02-27T15:32:08.819Z,2.87
2023-02-27T15:34:37.318Z,2.53
2023-02-27T15:37:07.695Z,2.87
2023-02-27T15:39:36.575Z,5.60
2023-02-27T15:42:07.051Z,6.43
2023-02-27T15:44:37.740Z,4.03
2023-02-27T15:47:06.565Z,1.93
2023-02-27T15:49:35.057Z,3.83
2023-02-27T15:52:06.418Z,2.53
2023-02-27T15:54:35.350Z,4.17
2023-02-27T15:57:07.472Z,3.57
2023-02-27T15:59:38.073Z,3.60
2023-02-27T16:02:06.852Z,5.07
2023-02-27T16:04:35.731Z,5.00
2023-02-27T16:07:05.207Z,3.93
2023-02-27T16:09:34.597Z,5.57
2023-02-27T16:12:20.494Z,3.70
2023-02-27T16:14:48.754Z,2.83
2023-02-27T16:17:27.450Z,4.10
2023-02-27T16:19:56.193Z,3.00
2023-02-27T16:22:24.685Z,2.30
2023-02-27T16:24:53.209Z,8.73
2023-02-27T16:27:25.073Z,7.23
2023-02-27T16:29:54.068Z,3.00
2023-02-27T16:32:27.167Z,3.73
2023-02-27T16:35:02.235Z,3.33
2023-02-27T16:37:33.914Z,6.50
2023-02-27T16:40:02.242Z,3.33
2023-02-27T16:42:31.817Z,2.93
2023-02-27T16:45:00.029Z,2.90
2023-02-27T16:47:28.883Z,5.50
2023-02-27T16:49:58.186Z,4.87
2023-02-27T16:52:26.350Z,4.20
2023-02-27T16:54:54.558Z,4.30
2023-02-27T16:57:27.629Z,2.50
2023-02-27T16:59:57.567Z,3.97
2023-02-27T17:02:25.742Z,4.00
2023-02-27T17:04:53.981Z,2.47
2023-02-27T17:07:22.171Z,4.57
2023-02-27T17:09:51.242Z,4.20
2023-02-27T17:12:19.619Z,3.23
2023-02-27T17:14:48.089Z,3.03
2023-02-27T17:17:17.752Z,1.70
2023-02-27T17:19:46.146Z,2.83
2023-02-27T17:22:15.100Z,7.00
2023-02-27T17:24:43.369Z,3.17
2023-02-27T17:27:11.603Z,3.40
2023-02-27T17:29:40.218Z,2.67
2023-02-27T17:32:08.780Z,6.03
2023-02-27T17:34:38.493Z,4.63
2023-02-27T17:37:06.749Z,7.07
2023-02-27T17:39:35.008Z,4.77
2023-02-27T17:42:03.496Z,4.37
2023-02-27T17:44:31.818Z,5.90
2023-02-27T17:47:00.049Z,6.20
2023-02-27T17:49:28.265Z,6.73
2023-02-27T17:52:00.437Z,5.50
2023-02-27T17:54:28.679Z,7.47
2023-02-27T17:56:56.892Z,3.67
2023-02-27T17:59:25.119Z,3.37
2023-02-27T18:01:55.508Z,3.80
2023-02-27T18:04:23.871Z,5.20
2023-02-27T18:06:52.091Z,4.57
2023-02-27T18:09:21.631Z,3.50
2023-02-27T18:11:49.865Z,3.37
2023-02-27T18:14:18.208Z,9.03
2023-02-27T18:16:46.472Z,3.93
2023-02-27T18:19:14.954Z,5.03
2023-02-27T18:21:46.930Z,7.73
2023-02-27T18:24:15.177Z,4.53
2023-02-27T18:26:45.324Z,3.37
2023-02-27T18:29:13.968Z,5.83
2023-02-27T18:31:43.156Z,6.77
2023-02-27T18:34:11.612Z,7.33
2023-02-27T18:36:48.241Z,6.33
2023-02-27T18:39:16.476Z,4.07
2023-02-27T18:41:47.507Z,3.70
2023-02-27T18:44:15.836Z,4.50
2023-02-27T18:46:44.298Z,5.90
2023-02-27T18:49:12.552Z,6.90
2023-02-27T18:51:40.762Z,3.77
2023-02-27T18:54:09.140Z,4.20
2023-02-27T18:56:37.385Z,4.80
2023-02-27T18:59:09.090Z,5.30
2023-02-27T19:01:39.463Z,5.30
2023-02-27T19:04:09.497Z,4.93
2023-02-27T19:06:40.701Z,7.83
2023-02-27T19:09:09.438Z,8.00
2023-02-27T19:11:38.946Z,7.73
2023-02-27T19:14:09.149Z,10.93
2023-02-27T19:16:37.507Z,19.30
2023-02-27T19:19:05.954Z,14.57
2023-02-27T19:21:35.923Z,12.13
2023-02-27T19:24:04.458Z,11.83
2023-02-27T19:26:33.994Z,10.73
2023-02-27T19:29:02.536Z,8.93
2023-02-27T19:31:32.591Z,9.40
2023-02-27T19:34:01.864Z,9.60
2023-02-27T19:36:31.565Z,13.90
2023-02-27T19:38:59.955Z,9.10
2023-02-27T19:41:28.402Z,12.10
2023-02-27T19:43:57.047Z,13.17
2023-02-27T19:46:26.789Z,8.33
2023-02-27T19:48:58.426Z,11.63
2023-02-27T19:51:27.221Z,7.60
2023-02-27T19:53:55.528Z,9.43
2023-02-27T19:56:24.630Z,9.60
2023-02-27T19:58:53.930Z,7.00
2023-02-27T20:01:23.211Z,9.30
2023-02-27T20:03:51.874Z,9.63
2023-02-27T20:06:23.210Z,6.93
2023-02-27T20:08:51.814Z,8.10
2023-02-27T20:11:21.539Z,10.40
2023-02-27T20:13:50.198Z,9.20
2023-02-27T20:16:19.563Z,12.97
2023-02-27T20:18:48.717Z,11.67
2023-02-27T20:21:17.782Z,11.57
2023-02-27T20:23:48.756Z,12.97
2023-02-27T20:26:19.358Z,13.07
2023-02-27T20:28:48.116Z,13.50
2023-02-27T20:31:18.805Z,11.27
2023-02-27T20:33:47.412Z,11.07
2023-02-27T20:36:16.150Z,12.57
2023-02-27T20:38:44.758Z,9.57
2023-02-27T20:41:15.140Z,11.83
2023-02-27T20:43:43.912Z,10.93
2023-02-27T20:46:13.184Z,9.77
2023-02-27T20:48:41.757Z,9.80
2023-02-27T20:51:10.842Z,7.93
2023-02-27T20:53:39.876Z,10.07
2023-02-27T20:56:08.712Z,8.80
2023-02-27T20:58:39.288Z,7.37
2023-02-27T21:01:09.933Z,8.63
2023-02-27T21:03:39.838Z,8.53
2023-02-27T21:06:08.645Z,7.93
2023-02-27T21:08:37.227Z,7.67
2023-02-27T21:11:08.989Z,6.70
2023-02-27T21:13:38.752Z,11.00
2023-02-27T21:16:09.215Z,10.83
2023-02-27T21:18:37.991Z,10.00
2023-02-27T21:21:06.768Z,7.50
2023-02-27T21:23:41.282Z,8.63
2023-02-27T21:26:10.270Z,11.50
2023-02-27T21:28:46.859Z,16.13
2023-02-27T21:31:15.539Z,10.40
2023-02-27T21:33:43.843Z,9.60
2023-02-27T21:36:12.590Z,13.37
2023-02-27T21:38:41.060Z,9.23
2023-02-27T21:41:11.688Z,6.00
2023-02-27T21:43:41.780Z,7.17
2023-02-27T21:46:10.780Z,6.70
2023-02-27T21:48:39.427Z,7.43
2023-02-27T21:51:08.230Z,8.80
2023-02-27T21:53:37.156Z,4.50
2023-02-27T21:56:06.037Z,5.47
2023-02-27T21:58:34.286Z,6.83
2023-02-27T22:01:04.530Z,10.03
2023-02-27T22:03:35.122Z,8.37
2023-02-27T22:06:03.443Z,10.67
2023-02-27T22:08:31.769Z,12.00
2023-02-27T22:11:00.450Z,10.77
2023-02-27T22:13:29.329Z,11.80
2023-02-27T22:15:57.658Z,11.83
2023-02-27T22:18:28.464Z,11.83
2023-02-27T22:20:56.677Z,11.33
2023-02-27T22:23:24.990Z,8.07
2023-02-27T22:26:00.251Z,10.57
2023-02-27T22:28:28.452Z,14.37
2023-02-27T22:31:06.656Z,11.60
2023-02-27T22:33:36.865Z,10.30
2023-02-27T22:36:08.665Z,7.93
2023-02-27T22:38:37.122Z,10.00
2023-02-27T22:41:06.307Z,6.87
2023-02-27T22:43:34.839Z,7.47
2023-02-27T22:46:03.175Z,10.00
2023-02-27T22:48:31.447Z,8.60
2023-02-27T22:51:03.321Z,7.03
2023-02-27T22:53:33.028Z,8.00
2023-02-27T22:56:01.508Z,10.57
2023-02-27T22:58:31.002Z,8.03
2023-02-27T23:00:59.968Z,7.53
2023-02-27T23:03:28.212Z,9.70
2023-02-27T23:05:56.434Z,6.53
2023-02-27T23:08:26.062Z,7.57
2023-02-27T23:10:54.251Z,9.37
2023-02-27T23:13:22.497Z,10.53
2023-02-27T23:15:50.718Z,6.23
2023-02-27T23:18:18.963Z,6.50
2023-02-27T23:20:47.170Z,6.20
2023-02-27T23:23:15.350Z,8.73
2023-02-27T23:25:45.003Z,7.83
2023-02-27T23:28:13.492Z,8.37
2023-02-27T23:30:41.766Z,7.00
2023-02-27T23:33:10.008Z,7.67
2023-02-27T23:35:38.268Z,9.37
2023-02-27T23:38:07.454Z,6.87
2023-02-27T23:40:37.247Z,10.63
2023-02-27T23:43:06.841Z,6.83
2023-02-27T23:45:35.162Z,7.87
2023-02-27T23:48:04.020Z,9.77
2023-02-27T23:50:33.098Z,8.40
2023-02-27T23:53:01.845Z,8.00
2023-02-27T23:55:30.863Z,8.90
2023-02-27T23:58:00.192Z,10.27
